Mariner Of The Seas — C6FV9 — position and weather

sailwx.info

Track history (hours):
 
Tides and Currents Weather Stations Pressure Air Temp Water Temp Dewpoint Dewpoint Depression Visibility Wind Speed Wind Dir Waves Ship Positions

Mariner Of The Seas

Operator: Royal Caribbean Cruises Ltd

Last reported at 2015-Jul-30 23:31 UTC. Time now 2015-Aug-01 03:31 UTC.
Position N 38°19' E 121°30'.

Type: Passenger vessel. MMSI: 311493000.

Date/timePositionNaut miles runAvg speedWind from/ knotsBaromVisibWave heightAir tempDewpointWater temp
2015-Jul-30 23:31N 38°19' E 121°30'1212.3
2015-Jul-30 22:31N 38°24' E 121°16'16212.5
2015-Jul-30 09:33N 38°57' E 117°53'3 2.9
2015-Jul-30 08:28N 38°59' E 117°49'0 0.0
2015-Jul-30 07:28N 38°59' E 117°49'0 0.0
2015-Jul-30 06:22N 38°59' E 117°49'0 0.0
2015-Jul-30 05:28N 38°59' E 117°49'0 0.0
2015-Jul-30 04:28N 38°59' E 117°49'0 0.0
2015-Jul-30 03:28N 38°59' E 117°49'0 0.0
2015-Jul-30 02:28N 38°59' E 117°49'0 0.0
2015-Jul-30 01:22N 38°59' E 117°49'0 0.0
2015-Jul-30 00:28N 38°59' E 117°49'3 2.9
2015-Jul-29 23:33N 38°57' E 117°52'7316.8
2015-Jul-29 19:10N 38°46' E 119°25'14817.1
2015-Jul-29 10:31N 37°58' E 122°23'1918.2
2015-Jul-29 09:28N 37°48' E 122°44'22020.0
2015-Jul-28 22:28N 34°53' E 125°28'3317.5
2015-Jul-28 20:33N 34°20' E 125°39'7017.5
2015-Jul-28 16:33N 33°46' E 126°52'15319.1
2015-Jul-28 08:33N 33°41' E 129°56'1616.2
2015-Jul-28 07:33N 33°43' E 130°15'10 9.2
2015-Jul-28 06:31N 33°37' E 130°24'0 0.0
2015-Jul-28 05:31N 33°37' E 130°24'0 0.0
2015-Jul-28 04:31N 33°37' E 130°24'0 0.0
2015-Jul-28 03:31N 33°37' E 130°24'0 0.0
2015-Jul-28 02:31N 33°37' E 130°24'0 0.0
2015-Jul-28 01:31N 33°37' E 130°24'0 0.0
2015-Jul-28 00:31N 33°37' E 130°24'0 0.0
2015-Jul-27 23:31N 33°37' E 130°24'0 0.0
2015-Jul-27 22:31N 33°37' E 130°24'0 0.0
2015-Jul-27 21:31N 33°37' E 130°24'1 1.3
2015-Jul-27 20:33N 33°37' E 130°23'1212.3
2015-Jul-27 19:33N 33°44' E 130°11'50410.7
2015-Jul-25 20:33N 38°20' E 121°28'17215.6
2015-Jul-25 09:33N 38°57' E 117°54'4 3.6
2015-Jul-25 08:30N 38°59' E 117°49'0 0.0
2015-Jul-25 05:24N 38°59' E 117°49'0 0.0
2015-Jul-25 04:30N 38°59' E 117°49'0 0.0
2015-Jul-25 03:30N 38°59' E 117°49'0 0.0
2015-Jul-25 02:30N 38°59' E 117°49'0 0.0
2015-Jul-25 00:30N 38°59' E 117°49'0 0.2
2015-Jul-24 23:33N 38°58' E 117°49'6114.8
2015-Jul-24 19:26N 38°48' E 119°06'2915.5
2015-Jul-24 17:33N 38°44' E 119°43'1614.9
2015-Jul-24 16:28N 38°41' E 120°04'1614.5
2015-Jul-24 15:22N 38°39' E 120°24'5413.5
2015-Jul-24 11:21N 38°22' E 121°30'1315.3
2015-Jul-24 10:31N 38°16' E 121°44'1815.4
2015-Jul-24 09:22N 38°07' E 122°03'1215.4
2015-Jul-24 08:33N 37°60' E 122°17'1515.1
2015-Jul-24 07:33N 37°52' E 122°33'1915.2
2015-Jul-24 06:19N 37°43' E 122°54'  
2015-Jul-21 13:32N 33°51' E 130°14'1514.8
2015-Jul-21 12:33N 33°38' E 130°21'2 2.3
2015-Jul-21 11:33N 33°37' E 130°24'0 0.0
2015-Jul-21 10:30N 33°37' E 130°24'0 0.0
2015-Jul-21 09:33N 33°37' E 130°24'0 0.0
2015-Jul-21 08:33N 33°37' E 130°24'0 0.0
2015-Jul-21 07:30N 33°37' E 130°24'0 0.0
2015-Jul-21 06:33N 33°37' E 130°24'0 0.0
2015-Jul-21 05:33N 33°37' E 130°24'0 0.0
2015-Jul-21 04:33N 33°37' E 130°24'0 0.0
2015-Jul-21 03:33N 33°37' E 130°24'4 4.5
2015-Jul-21 02:33N 33°39' E 130°19'  
Track history (hours):
 
Tides and Currents Weather Stations Pressure Air Temp Water Temp Dewpoint Dewpoint Depression Visibility Wind Speed Wind Dir Waves Ship Positions

Mariner Of The Seas

Operator: Royal Caribbean Cruises Ltd

Last reported at 2015-Jul-30 23:31 UTC. Time now 2015-Aug-01 03:31 UTC.
Position N 38°19' E 121°30'.

Type: Passenger vessel. MMSI: 311493000.

Date/timePositionNaut miles runAvg speedWind from/ knotsBaromVisibWave heightAir tempDewpointWater temp
2015-Jul-30 23:31N 38°19' E 121°30'1212.3
2015-Jul-30 22:31N 38°24' E 121°16'16212.5
2015-Jul-30 09:33N 38°57' E 117°53'3 2.9
2015-Jul-30 08:28N 38°59' E 117°49'0 0.0
2015-Jul-30 07:28N 38°59' E 117°49'0 0.0
2015-Jul-30 06:22N 38°59' E 117°49'0 0.0
2015-Jul-30 05:28N 38°59' E 117°49'0 0.0
2015-Jul-30 04:28N 38°59' E 117°49'0 0.0
2015-Jul-30 03:28N 38°59' E 117°49'0 0.0
2015-Jul-30 02:28N 38°59' E 117°49'0 0.0
2015-Jul-30 01:22N 38°59' E 117°49'0 0.0
2015-Jul-30 00:28N 38°59' E 117°49'3 2.9
2015-Jul-29 23:33N 38°57' E 117°52'7316.8
2015-Jul-29 19:10N 38°46' E 119°25'14817.1
2015-Jul-29 10:31N 37°58' E 122°23'1918.2
2015-Jul-29 09:28N 37°48' E 122°44'22020.0
2015-Jul-28 22:28N 34°53' E 125°28'3317.5
2015-Jul-28 20:33N 34°20' E 125°39'7017.5
2015-Jul-28 16:33N 33°46' E 126°52'15319.1
2015-Jul-28 08:33N 33°41' E 129°56'1616.2
2015-Jul-28 07:33N 33°43' E 130°15'10 9.2
2015-Jul-28 06:31N 33°37' E 130°24'0 0.0
2015-Jul-28 05:31N 33°37' E 130°24'0 0.0
2015-Jul-28 04:31N 33°37' E 130°24'0 0.0
2015-Jul-28 03:31N 33°37' E 130°24'0 0.0
2015-Jul-28 02:31N 33°37' E 130°24'0 0.0
2015-Jul-28 01:31N 33°37' E 130°24'0 0.0
2015-Jul-28 00:31N 33°37' E 130°24'0 0.0
2015-Jul-27 23:31N 33°37' E 130°24'0 0.0
2015-Jul-27 22:31N 33°37' E 130°24'0 0.0
2015-Jul-27 21:31N 33°37' E 130°24'1 1.3
2015-Jul-27 20:33N 33°37' E 130°23'1212.3
2015-Jul-27 19:33N 33°44' E 130°11'50410.7
2015-Jul-25 20:33N 38°20' E 121°28'17215.6
2015-Jul-25 09:33N 38°57' E 117°54'4 3.6
2015-Jul-25 08:30N 38°59' E 117°49'0 0.0
2015-Jul-25 05:24N 38°59' E 117°49'0 0.0
2015-Jul-25 04:30N 38°59' E 117°49'0 0.0
2015-Jul-25 03:30N 38°59' E 117°49'0 0.0
2015-Jul-25 02:30N 38°59' E 117°49'0 0.0
2015-Jul-25 00:30N 38°59' E 117°49'0 0.2
2015-Jul-24 23:33N 38°58' E 117°49'6114.8
2015-Jul-24 19:26N 38°48' E 119°06'2915.5
2015-Jul-24 17:33N 38°44' E 119°43'1614.9
2015-Jul-24 16:28N 38°41' E 120°04'1614.5
2015-Jul-24 15:22N 38°39' E 120°24'5413.5
2015-Jul-24 11:21N 38°22' E 121°30'1315.3
2015-Jul-24 10:31N 38°16' E 121°44'1815.4
2015-Jul-24 09:22N 38°07' E 122°03'1215.4
2015-Jul-24 08:33N 37°60' E 122°17'1515.1
2015-Jul-24 07:33N 37°52' E 122°33'1915.2
2015-Jul-24 06:19N 37°43' E 122°54'  
2015-Jul-21 13:32N 33°51' E 130°14'1514.8
2015-Jul-21 12:33N 33°38' E 130°21'2 2.3
2015-Jul-21 11:33N 33°37' E 130°24'0 0.0
2015-Jul-21 10:30N 33°37' E 130°24'0 0.0
2015-Jul-21 09:33N 33°37' E 130°24'0 0.0
2015-Jul-21 08:33N 33°37' E 130°24'0 0.0
2015-Jul-21 07:30N 33°37' E 130°24'0 0.0
2015-Jul-21 06:33N 33°37' E 130°24'0 0.0
2015-Jul-21 05:33N 33°37' E 130°24'0 0.0
2015-Jul-21 04:33N 33°37' E 130°24'0 0.0
2015-Jul-21 03:33N 33°37' E 130°24'4 4.5
2015-Jul-21 02:33N 33°39' E 130°19'  

Dump ship's entire track history